createdAt,value
2018-08-19T00:00:59.553Z,19.67
2018-08-19T00:03:29.242Z,19.64
2018-08-19T00:05:58.906Z,19.60
2018-08-19T00:08:28.594Z,19.59
2018-08-19T00:11:08.714Z,19.55
2018-08-19T00:13:38.850Z,19.53
2018-08-19T00:16:09.837Z,19.55
2018-08-19T00:19:21.509Z,19.47
2018-08-19T00:21:51.269Z,19.43
2018-08-19T00:24:21.028Z,19.38
2018-08-19T00:26:54.140Z,19.34
2018-08-19T00:29:33.193Z,19.31
2018-08-19T00:32:02.999Z,19.28
2018-08-19T00:34:40.089Z,19.32
2018-08-19T00:37:10.012Z,19.38
2018-08-19T00:39:40.284Z,19.35
2018-08-19T00:42:11.440Z,19.35
2018-08-19T00:44:42.802Z,19.31
2018-08-19T00:47:12.823Z,19.25
2018-08-19T00:49:45.070Z,19.22
2018-08-19T00:52:16.135Z,19.13
2018-08-19T00:54:45.851Z,19.03
2018-08-19T00:57:16.060Z,18.96
2018-08-19T00:59:45.899Z,18.92
2018-08-19T01:02:15.564Z,18.87
2018-08-19T01:04:45.537Z,18.80
2018-08-19T01:07:16.106Z,18.74
2018-08-19T01:09:46.051Z,18.73
2018-08-19T01:12:15.991Z,18.68
2018-08-19T01:14:45.812Z,18.68
2018-08-19T01:17:16.737Z,18.67
2018-08-19T01:19:47.128Z,18.64
2018-08-19T01:22:20.320Z,18.51
2018-08-19T01:24:50.381Z,18.49
2018-08-19T01:27:20.301Z,18.48
2018-08-19T01:29:49.978Z,18.47
2018-08-19T01:32:21.908Z,18.38
2018-08-19T01:34:51.614Z,18.28
2018-08-19T01:37:32.044Z,18.25
2018-08-19T01:40:01.752Z,18.22
2018-08-19T01:42:31.491Z,18.16
2018-08-19T01:45:01.674Z,18.13
2018-08-19T01:47:31.412Z,18.10
2018-08-19T01:50:32.513Z,18.06
2018-08-19T01:53:02.127Z,18.11
2018-08-19T01:55:31.891Z,17.86
2018-08-19T02:12:15.509Z,17.84
2018-08-19T02:14:45.640Z,17.83
2018-08-19T02:17:15.934Z,17.77
2018-08-19T02:19:45.833Z,17.71
2018-08-19T02:23:04.762Z,17.63
2018-08-19T02:25:42.235Z,17.58
2018-08-19T02:28:13.194Z,17.59
2018-08-19T02:31:02.734Z,17.52
2018-08-19T02:33:35.533Z,17.49
2018-08-19T02:36:06.614Z,17.43
2018-08-19T02:38:39.130Z,17.38
2018-08-19T02:41:08.776Z,17.31
2018-08-19T02:43:45.023Z,17.31
2018-08-19T02:46:14.882Z,17.35
2018-08-19T02:52:24.160Z,17.24
2018-08-19T02:54:54.637Z,17.17
2018-08-19T02:57:27.222Z,17.14
2018-08-19T02:59:58.257Z,17.12
2018-08-19T03:05:22.998Z,17.19
2018-08-19T03:07:57.144Z,17.22
2018-08-19T03:10:27.782Z,17.27
2018-08-19T03:12:58.281Z,17.24
2018-08-19T03:18:23.421Z,17.25
2018-08-19T03:20:54.174Z,17.19
2018-08-19T03:23:25.242Z,17.22
2018-08-19T03:25:55.969Z,17.24
2018-08-19T03:28:47.258Z,17.22
2018-08-19T03:31:22.723Z,17.19
2018-08-19T03:33:52.826Z,17.25
2018-08-19T03:36:23.959Z,17.33
2018-08-19T03:39:01.377Z,17.24
2018-08-19T03:41:31.917Z,16.52
2018-08-19T03:44:02.145Z,17.24
2018-08-19T03:46:33.594Z,17.25
2018-08-19T03:49:04.059Z,17.29
2018-08-19T03:51:33.644Z,17.24
2018-08-19T03:54:05.884Z,17.26
2018-08-19T03:56:36.203Z,17.35
2018-08-19T03:59:08.017Z,17.40
2018-08-19T04:01:46.695Z,17.41
2018-08-19T04:04:17.731Z,17.33
2018-08-19T04:06:47.509Z,17.30
2018-08-19T04:10:01.385Z,17.35
2018-08-19T04:12:31.981Z,17.41
2018-08-19T04:15:03.145Z,17.39
2018-08-19T04:17:33.349Z,17.37
2018-08-19T04:20:07.915Z,17.28
2018-08-19T04:22:37.827Z,17.28
2018-08-19T04:25:07.649Z,17.35
2018-08-19T04:27:37.431Z,17.25
2018-08-19T04:30:07.606Z,17.20
2018-08-19T04:32:37.790Z,17.18
2018-08-19T04:35:09.015Z,17.22
2018-08-19T04:37:39.105Z,17.23
2018-08-19T04:45:56.707Z,17.15
2018-08-19T04:48:28.344Z,17.16
2018-08-19T04:50:58.432Z,17.18
2018-08-19T04:53:28.530Z,17.22
2018-08-19T04:55:58.158Z,17.20
2018-08-19T04:58:27.799Z,17.25
2018-08-19T05:08:05.967Z,17.19
2018-08-19T05:10:37.897Z,17.24
2018-08-19T05:13:31.807Z,16.39
2018-08-19T05:16:02.408Z,17.43
2018-08-19T05:18:33.965Z,17.47
2018-08-19T05:21:11.035Z,17.63
2018-08-19T05:26:20.621Z,17.87
2018-08-19T05:29:06.139Z,17.97
2018-08-19T05:31:39.232Z,17.93
2018-08-19T05:34:21.998Z,17.98
2018-08-19T05:36:52.167Z,18.04
2018-08-19T05:39:22.321Z,18.03
2018-08-19T05:42:03.841Z,18.07
2018-08-19T05:46:52.192Z,18.19
2018-08-19T05:58:04.338Z,18.42
2018-08-19T06:00:35.969Z,18.48
2018-08-19T06:05:49.206Z,18.65
2018-08-19T06:08:21.464Z,18.79
2018-08-19T06:10:54.412Z,18.86
2018-08-19T06:13:26.885Z,18.95
2018-08-19T06:15:58.394Z,19.08
2018-08-19T06:18:33.209Z,19.14
2018-08-19T06:24:40.109Z,19.39
2018-08-19T06:27:17.760Z,19.59
2018-08-19T06:29:57.870Z,19.74
2018-08-19T06:32:57.461Z,19.74
2018-08-19T06:35:36.641Z,19.79
2018-08-19T06:39:50.881Z,19.88
2018-08-19T06:45:35.401Z,20.17
2018-08-19T06:51:18.277Z,20.71
2018-08-19T06:54:05.903Z,20.99
2018-08-19T06:57:48.088Z,21.17
2018-08-19T07:06:47.572Z,21.51
2018-08-19T07:09:30.817Z,21.69
2018-08-19T07:12:15.328Z,21.80
2018-08-19T07:17:53.609Z,21.98
2018-08-19T07:23:36.098Z,22.25
2018-08-19T07:32:29.112Z,22.94
2018-08-19T07:49:10.880Z,23.85
2018-08-19T07:51:48.978Z,24.21
2018-08-19T07:54:19.835Z,24.32
2018-08-19T07:56:50.053Z,24.29
2018-08-19T07:59:20.136Z,24.42
2018-08-19T08:01:51.367Z,24.37
2018-08-19T08:04:27.327Z,24.54
2018-08-19T08:06:59.912Z,24.64
2018-08-19T08:09:31.030Z,24.86
2018-08-19T08:12:02.265Z,25.65
2018-08-19T08:14:33.329Z,26.22
2018-08-19T08:17:03.674Z,26.68
2018-08-19T08:19:38.085Z,27.13
2018-08-19T08:22:14.212Z,27.47
2018-08-19T08:24:45.059Z,28.11
2018-08-19T08:27:15.010Z,28.31
2018-08-19T08:29:48.180Z,29.04
2018-08-19T08:32:24.652Z,29.10
2018-08-19T08:35:02.396Z,29.13
2018-08-19T08:41:00.134Z,29.51
2018-08-19T08:43:30.105Z,29.39
2018-08-19T08:46:02.427Z,29.20
2018-08-19T08:48:35.424Z,28.77
2018-08-19T08:51:07.114Z,28.26
2018-08-19T08:53:45.367Z,28.05
2018-08-19T08:56:15.889Z,27.61
2018-08-19T08:58:51.613Z,27.39
2018-08-19T09:01:21.552Z,27.23
2018-08-19T09:03:51.349Z,27.21
2018-08-19T09:06:35.513Z,26.87
2018-08-19T09:09:08.187Z,27.05
2018-08-19T09:11:49.058Z,27.47
2018-08-19T09:14:20.977Z,28.42
2018-08-19T09:16:57.638Z,29.60
2018-08-19T09:22:28.286Z,31.52
2018-08-19T09:24:59.211Z,31.54
2018-08-19T09:30:35.026Z,32.65
2018-08-19T09:33:21.265Z,32.07
2018-08-19T09:35:51.613Z,32.69
2018-08-19T09:38:23.384Z,33.34
2018-08-19T09:43:29.635Z,33.70
2018-08-19T09:46:02.766Z,33.46
2018-08-19T09:48:37.213Z,33.57
2018-08-19T09:51:14.404Z,33.38
2018-08-19T09:56:52.946Z,32.76
2018-08-19T10:02:32.495Z,31.08
2018-08-19T10:06:01.645Z,30.55
2018-08-19T10:17:40.914Z,30.29
2018-08-19T10:20:31.049Z,30.32
2018-08-19T10:23:06.245Z,29.90
2018-08-19T10:25:36.013Z,29.72
2018-08-19T10:28:06.726Z,29.72
2018-08-19T10:30:56.825Z,30.20
2018-08-19T10:33:35.935Z,29.58
2018-08-19T10:36:06.266Z,29.64
2018-08-19T10:38:38.400Z,29.76
2018-08-19T10:44:12.576Z,29.73
2018-08-19T11:04:02.715Z,29.44
2018-08-19T11:06:43.309Z,29.69
2018-08-19T11:09:14.184Z,30.37
2018-08-19T11:11:52.370Z,30.37
2018-08-19T11:14:33.452Z,30.44
2018-08-19T11:17:04.261Z,30.51
2018-08-19T11:19:41.060Z,30.60
2018-08-19T11:22:20.683Z,30.54
2018-08-19T11:25:02.754Z,30.40
2018-08-19T11:27:39.857Z,30.47
2018-08-19T11:30:29.262Z,30.60
2018-08-19T11:33:09.169Z,30.59
2018-08-19T11:35:47.896Z,30.23
2018-08-19T11:38:20.072Z,29.81
2018-08-19T11:40:57.647Z,30.26
2018-08-19T11:43:27.932Z,30.14
2018-08-19T11:48:58.945Z,29.98
2018-08-19T11:52:05.394Z,29.72
2018-08-19T11:54:35.552Z,29.83
2018-08-19T12:00:19.599Z,30.25
2018-08-19T12:02:50.453Z,30.45
2018-08-19T12:05:21.332Z,30.07
2018-08-19T12:07:55.968Z,29.96
2018-08-19T12:10:29.496Z,30.18
2018-08-19T12:13:25.500Z,30.18
2018-08-19T12:32:11.444Z,29.87
2018-08-19T12:35:01.103Z,30.05
2018-08-19T12:37:32.566Z,29.88
2018-08-19T12:40:05.159Z,29.79
2018-08-19T12:43:12.296Z,30.02
2018-08-19T12:45:44.064Z,29.91
2018-08-19T12:48:31.540Z,30.00
2018-08-19T12:51:15.036Z,30.06
2018-08-19T12:59:19.454Z,30.61
2018-08-19T13:01:56.103Z,30.57
2018-08-19T13:09:45.242Z,30.60
2018-08-19T13:12:19.184Z,31.10
2018-08-19T13:14:50.563Z,31.21
2018-08-19T13:17:33.062Z,31.27
2018-08-19T13:20:15.345Z,31.17
2018-08-19T13:25:39.574Z,30.65
2018-08-19T13:28:12.347Z,30.82
2018-08-19T13:30:43.841Z,31.07
2018-08-19T13:33:13.915Z,31.46
2018-08-19T13:35:43.744Z,31.42
2018-08-19T13:38:24.151Z,31.53
2018-08-19T13:40:53.701Z,32.45
2018-08-19T13:43:24.089Z,33.81
2018-08-19T13:45:54.645Z,35.64
2018-08-19T13:48:28.250Z,36.87
2018-08-19T13:50:59.849Z,38.62
2018-08-19T13:53:30.535Z,39.42
2018-08-19T13:56:01.091Z,39.16
2018-08-19T13:58:35.203Z,40.10
2018-08-19T14:01:06.768Z,39.03
2018-08-19T14:03:36.910Z,38.48
2018-08-19T14:06:08.341Z,39.65
2018-08-19T14:08:40.152Z,39.22
2018-08-19T14:11:10.578Z,40.07
2018-08-19T14:13:41.238Z,41.00
2018-08-19T14:16:28.789Z,40.24
2018-08-19T14:19:03.325Z,40.79
2018-08-19T14:21:36.783Z,40.92
2018-08-19T14:24:07.564Z,40.93
2018-08-19T14:26:38.647Z,41.09
2018-08-19T14:29:09.217Z,41.68
2018-08-19T14:31:39.600Z,41.17
2018-08-19T14:46:16.366Z,40.39
2018-08-19T14:49:00.103Z,40.16
2018-08-19T14:54:52.891Z,40.06
2018-08-19T15:10:00.714Z,40.10
2018-08-19T15:12:51.691Z,39.93
2018-08-19T15:15:32.846Z,40.74
2018-08-19T15:27:07.021Z,37.49
2018-08-19T15:29:41.660Z,36.95
2018-08-19T15:32:13.134Z,36.24
2018-08-19T15:37:48.443Z,34.74
2018-08-19T15:40:29.689Z,34.11
2018-08-19T17:34:59.465Z,28.17
2018-08-19T17:40:36.406Z,28.04
2018-08-19T18:07:30.326Z,27.10
2018-08-19T18:16:25.609Z,26.75
2018-08-19T18:22:44.880Z,26.51
2018-08-19T18:25:17.555Z,26.32
2018-08-19T18:27:50.202Z,26.12
2018-08-19T18:30:40.416Z,25.93
2018-08-19T18:33:29.004Z,25.77
2018-08-19T18:38:59.453Z,25.39
2018-08-19T18:41:44.827Z,25.27
2018-08-19T18:44:34.330Z,25.10
2018-08-19T18:47:18.385Z,24.93
2018-08-19T19:03:42.371Z,24.16
2018-08-19T19:06:56.441Z,24.05
2018-08-19T19:09:37.088Z,23.89
2018-08-19T19:16:42.209Z,23.56
2018-08-19T19:19:17.233Z,23.47
2018-08-19T19:21:57.635Z,23.33
2018-08-19T19:33:03.999Z,22.98
2018-08-19T19:35:52.298Z,22.88
2018-08-19T19:38:52.122Z,22.84
2018-08-19T19:41:31.173Z,22.77
2018-08-19T19:44:16.120Z,22.65
2018-08-19T19:49:55.684Z,22.44
2018-08-19T19:52:35.524Z,22.39
2018-08-19T19:56:32.421Z,22.33
2018-08-19T20:05:21.474Z,22.12
2018-08-19T20:07:57.233Z,22.03
2018-08-19T20:13:58.568Z,21.76
2018-08-19T20:22:21.337Z,21.62
2018-08-19T20:25:08.769Z,21.47
2018-08-19T20:28:10.911Z,21.40
2018-08-19T20:48:40.967Z,21.14
2018-08-19T20:51:11.846Z,21.12
2018-08-19T20:54:03.926Z,21.07
2018-08-19T20:56:39.899Z,21.05
2018-08-19T20:59:14.057Z,21.06
2018-08-19T21:01:46.133Z,21.02
